Time;durP1;ratioP1;P1;durP2;ratioP2;P2;SDS_P1;SDS_P2;PMS_P1;PMS_P2;Temp;Humidity;BMP_temperature;BMP_pressure;BME280_temperature;BME280_humidity;BME280_pressure;Samples;Min_cycle;Max_cycle;Signal;HPM_P1;HPM_P2
2024/03/15 00:01:24;;;;;;;17.08;10.95;;;;;;;11.19;100.00;99958.91;5009294;28;20049;-75
2024/03/15 00:03:50;;;;;;;18.95;11.07;;;;;;;11.19;100.00;99940.19;5000259;28;20025;-76
2024/03/15 00:06:17;;;;;;;22.15;11.93;;;;;;;11.17;100.00;99917.38;5007628;28;20180;-75
2024/03/15 00:08:43;;;;;;;21.65;11.85;;;;;;;11.14;100.00;99917.72;4991323;28;20065;-76
2024/03/15 00:11:09;;;;;;;16.80;10.45;;;;;;;10.92;100.00;99914.97;5012668;28;20041;-77
2024/03/15 00:13:34;;;;;;;20.45;11.15;;;;;;;10.92;100.00;99923.00;5012088;28;20038;-77
2024/03/15 00:16:00;;;;;;;22.50;11.63;;;;;;;11.02;100.00;99937.91;5007622;28;20492;-76
2024/03/15 00:18:25;;;;;;;15.90;10.40;;;;;;;10.81;100.00;99909.28;4990455;28;20357;-76
2024/03/15 00:20:50;;;;;;;19.57;11.93;;;;;;;10.84;100.00;99959.63;5007532;28;20053;-77
2024/03/15 00:23:17;;;;;;;21.03;13.03;;;;;;;10.92;100.00;99957.69;5007663;28;20159;-76
2024/03/15 00:25:42;;;;;;;22.00;11.50;;;;;;;10.75;100.00;99966.91;4990879;28;20133;-76
2024/03/15 00:28:08;;;;;;;21.20;13.27;;;;;;;10.80;100.00;99961.03;4990738;28;20030;-76
2024/03/15 00:30:34;;;;;;;19.98;11.70;;;;;;;10.65;100.00;99980.53;5008499;28;20061;-77
2024/03/15 00:32:59;;;;;;;27.13;13.40;;;;;;;10.61;100.00;100002.44;4991791;28;20048;-75
2024/03/15 00:35:26;;;;;;;20.13;12.07;;;;;;;10.66;100.00;100016.88;5017399;28;20280;-76
2024/03/15 00:37:52;;;;;;;20.00;11.98;;;;;;;10.73;100.00;100020.47;4990260;28;20030;-75
2024/03/15 00:40:17;;;;;;;20.67;12.15;;;;;;;10.75;100.00;99993.63;5008206;28;20030;-76
2024/03/15 00:42:43;;;;;;;18.85;12.02;;;;;;;10.59;100.00;99977.75;5006644;28;20045;-76
2024/03/15 00:45:09;;;;;;;21.00;12.90;;;;;;;10.66;100.00;99994.69;4990378;28;20544;-75
2024/03/15 00:47:35;;;;;;;23.33;12.90;;;;;;;10.67;100.00;99994.50;5007441;28;20122;-76
2024/03/15 00:50:01;;;;;;;22.20;12.27;;;;;;;10.62;100.00;99988.88;5011460;28;20033;-75
2024/03/15 00:52:26;;;;;;;18.85;11.77;;;;;;;10.57;100.00;99983.25;4993335;28;20075;-75
2024/03/15 00:54:52;;;;;;;19.13;11.97;;;;;;;10.65;100.00;99982.34;5008248;28;20441;-75
2024/03/15 00:57:17;;;;;;;18.27;12.60;;;;;;;10.62;100.00;99956.03;5002030;28;20029;-75
2024/03/15 00:59:42;;;;;;;20.40;11.00;;;;;;;10.55;100.00;99953.25;5006921;28;20408;-75
2024/03/15 01:02:08;;;;;;;18.63;11.87;;;;;;;10.40;100.00;99958.56;5006269;28;20034;-75
2024/03/15 01:04:34;;;;;;;19.17;11.70;;;;;;;10.50;100.00;99969.81;4991777;28;20037;-75
2024/03/15 01:07:01;;;;;;;20.98;11.30;;;;;;;10.39;100.00;99988.91;5006360;28;20291;-75
2024/03/15 01:09:29;;;;;;;18.08;11.40;;;;;;;10.47;100.00;99985.38;5021934;28;20108;-76
2024/03/15 01:11:54;;;;;;;20.35;12.32;;;;;;;10.39;100.00;99954.22;5007774;28;20083;-75
2024/03/15 01:14:21;;;;;;;20.43;12.13;;;;;;;10.37;100.00;99958.91;5006039;28;20049;-75
2024/03/15 01:16:47;;;;;;;20.13;12.57;;;;;;;10.40;100.00;99969.25;5022416;28;20042;-75
2024/03/15 01:19:13;;;;;;;19.33;11.52;;;;;;;10.38;100.00;99967.75;4988524;28;20051;-75
2024/03/15 01:21:39;;;;;;;;;;;;;;;10.40;100.00;99971.91;5006392;28;20049;-75
2024/03/15 01:24:04;;;;;;;22.70;12.02;;;;;;;10.25;100.00;99971.81;5007095;28;19913;-76
2024/03/15 01:26:30;;;;;;;17.95;11.60;;;;;;;10.43;100.00;99976.88;5005766;28;20073;-76
2024/03/15 01:28:55;;;;;;;16.75;10.75;;;;;;;10.42;100.00;99961.03;5005631;28;20489;-75
2024/03/15 01:31:21;;;;;;;19.45;10.93;;;;;;;10.49;100.00;99951.31;5022257;28;20025;-76
2024/03/15 01:33:46;;;;;;;18.17;10.90;;;;;;;10.42;100.00;99934.34;5015136;28;20036;-76
2024/03/15 01:36:12;;;;;;;22.67;12.55;;;;;;;10.53;100.00;99948.09;5014887;28;20032;-76
2024/03/15 01:38:38;;;;;;;17.73;11.07;;;;;;;10.50;100.00;99937.78;4987330;28;20041;-75
2024/03/15 01:41:03;;;;;;;20.45;12.15;;;;;;;10.33;100.00;99921.09;5000640;28;20037;-75
2024/03/15 01:43:28;;;;;;;19.60;12.60;;;;;;;10.30;100.00;99953.50;5005625;28;20042;-75
2024/03/15 01:45:54;;;;;;;19.07;10.80;;;;;;;10.39;100.00;99959.56;4989280;28;20095;-77
2024/03/15 01:48:20;;;;;;;19.85;11.90;;;;;;;10.37;100.00;99953.56;4989370;28;20088;-75
2024/03/15 01:50:47;;;;;;;20.48;11.48;;;;;;;10.39;100.00;99935.53;4989521;28;20068;-76
2024/03/15 01:53:14;;;;;;;19.08;12.10;;;;;;;10.45;100.00;99934.84;5014873;28;20030;-76
2024/03/15 01:55:40;;;;;;;20.65;12.35;;;;;;;10.40;100.00;99921.22;5022421;28;20073;-77
2024/03/15 01:58:08;;;;;;;18.13;10.93;;;;;;;10.41;100.00;99920.19;5011060;28;20104;-77
2024/03/15 02:00:33;;;;;;;20.42;11.60;;;;;;;10.49;100.00;99935.31;5007088;28;20061;-75
2024/03/15 02:02:58;;;;;;;20.60;12.00;;;;;;;10.52;100.00;99925.09;4989337;28;20080;-74
2024/03/15 02:05:24;;;;;;;19.47;11.53;;;;;;;10.39;100.00;99916.03;5005581;28;20446;-75
2024/03/15 02:07:50;;;;;;;18.87;12.47;;;;;;;10.25;100.00;99944.31;4989070;28;20029;-77
2024/03/15 02:10:15;;;;;;;19.20;11.35;;;;;;;10.38;100.00;99949.91;5005261;28;20105;-76
2024/03/15 02:12:41;;;;;;;19.30;12.23;;;;;;;10.24;100.00;99932.00;5020482;28;20117;-76
2024/03/15 02:15:08;;;;;;;28.65;11.68;;;;;;;10.51;100.00;99943.94;5006675;28;20087;-77
2024/03/15 02:17:36;;;;;;;21.05;11.98;;;;;;;10.45;100.00;99929.50;5006599;28;20026;-73
2024/03/15 02:20:05;;;;;;;21.23;13.32;;;;;;;10.35;100.00;99916.41;5005047;28;20026;-77
2024/03/15 02:22:32;;;;;;;21.40;12.38;;;;;;;10.24;100.00;99934.66;5021876;28;20042;-76
2024/03/15 02:24:57;;;;;;;23.55;14.77;;;;;;;10.27;100.00;99960.97;5005331;28;20447;-77
2024/03/15 02:27:24;;;;;;;21.50;12.17;;;;;;;10.22;100.00;99950.03;4992543;28;20042;-77
2024/03/15 02:29:51;;;;;;;20.27;12.02;;;;;;;10.33;100.00;99944.28;5005211;28;20029;-77
2024/03/15 02:32:18;;;;;;;20.92;12.20;;;;;;;10.32;100.00;99943.47;5008803;28;20039;-77
2024/03/15 02:34:43;;;;;;;20.20;11.23;;;;;;;10.26;100.00;99924.66;5006873;28;20568;-73
2024/03/15 02:37:09;;;;;;;18.10;11.27;;;;;;;10.34;100.00;99948.59;5012374;28;20045;-75
2024/03/15 02:39:35;;;;;;;22.27;12.48;;;;;;;10.22;100.00;99926.84;5010801;28;20026;-76
2024/03/15 02:42:03;;;;;;;21.47;13.67;;;;;;;10.21;100.00;99916.34;5014544;28;20072;-77
2024/03/15 02:44:30;;;;;;;21.70;12.70;;;;;;;10.20;100.00;99933.38;4992309;28;20368;-75
2024/03/15 02:46:56;;;;;;;22.13;11.73;;;;;;;10.22;100.00;99936.69;5013044;28;20112;-76
2024/03/15 02:49:22;;;;;;;23.35;11.65;;;;;;;10.10;100.00;99938.94;4992019;28;20120;-77
2024/03/15 02:51:47;;;;;;;22.02;12.30;;;;;;;10.15;100.00;99942.72;5008696;28;20137;-76
2024/03/15 02:54:13;;;;;;;21.20;12.60;;;;;;;10.11;100.00;99946.78;4995055;28;20029;-76
2024/03/15 02:56:38;;;;;;;16.93;10.37;;;;;;;10.19;100.00;99934.38;5019239;28;20120;-74
2024/03/15 02:59:03;;;;;;;21.10;12.23;;;;;;;10.11;100.00;99928.13;4991790;28;20025;-75
2024/03/15 03:01:29;;;;;;;18.63;12.47;;;;;;;10.00;100.00;99928.53;5008483;28;20125;-76
2024/03/15 03:03:56;;;;;;;22.30;12.63;;;;;;;10.12;100.00;99950.28;4992430;28;20102;-77
2024/03/15 03:06:22;;;;;;;22.33;11.40;;;;;;;10.03;100.00;99930.81;4994881;28;20018;-76
2024/03/15 03:08:48;;;;;;;20.45;12.38;;;;;;;10.03;100.00;99949.50;5012793;28;20038;-76
2024/03/15 03:11:16;;;;;;;21.30;11.65;;;;;;;9.99;100.00;99942.84;5019231;28;20673;-74
2024/03/15 03:13:42;;;;;;;21.08;11.60;;;;;;;10.01;100.00;99940.84;5018534;28;20064;-76
2024/03/15 03:16:07;;;;;;;20.97;12.47;;;;;;;10.02;100.00;99950.50;5026445;28;20144;-75
2024/03/15 03:18:32;;;;;;;23.43;13.17;;;;;;;9.99;100.00;99950.03;4994411;28;20327;-77
2024/03/15 03:20:59;;;;;;;19.15;12.45;;;;;;;10.03;100.00;99962.81;5025120;28;20036;-74
2024/03/15 03:23:26;;;;;;;21.48;13.10;;;;;;;10.05;100.00;99966.16;4991995;28;20473;-76
2024/03/15 03:25:51;;;;;;;24.73;14.35;;;;;;;9.98;100.00;99943.06;5024906;28;20033;-75
2024/03/15 03:28:17;;;;;;;19.70;12.80;;;;;;;9.96;100.00;99955.72;5007928;28;20389;-77
2024/03/15 03:30:43;;;;;;;28.02;13.48;;;;;;;9.96;100.00;99953.88;5008273;28;20037;-75
2024/03/15 03:33:08;;;;;;;20.73;12.27;;;;;;;9.94;100.00;99951.38;4993622;28;20030;-74
2024/03/15 03:35:34;;;;;;;25.13;12.30;;;;;;;9.87;100.00;99920.28;5006767;28;20513;-75
2024/03/15 03:37:59;;;;;;;21.75;12.23;;;;;;;9.84;100.00;99955.31;5041713;23;20431;-72
2024/03/15 03:40:24;;;;;;;23.30;13.40;;;;;;;9.85;100.00;99963.09;5039740;28;20108;-72
2024/03/15 03:42:51;;;;;;;19.47;12.60;;;;;;;9.77;100.00;99962.34;5028455;28;20045;-72
2024/03/15 03:45:17;;;;;;;;;;;;;;;9.82;100.00;99987.47;5038507;28;20276;-72
2024/03/15 03:47:48;;;;;;;21.05;12.45;;;;;;;9.87;100.00;99981.59;5032604;28;20248;-72
2024/03/15 03:50:13;;;;;;;20.08;13.20;;;;;;;9.93;100.00;99956.91;5037556;28;20033;-72
2024/03/15 03:52:39;;;;;;;21.73;12.97;;;;;;;10.00;100.00;99936.53;5034669;28;20075;-72
2024/03/15 03:55:07;;;;;;;19.35;12.35;;;;;;;9.93;100.00;99940.91;5033759;28;20060;-73
2024/03/15 03:57:34;;;;;;;23.83;12.60;;;;;;;9.85;100.00;99928.44;5038820;28;20059;-72
2024/03/15 04:00:13;;;;;;;21.60;12.93;;;;;;;9.82;100.00;99933.31;5036423;28;20040;-72
2024/03/15 04:02:43;;;;;;;20.42;11.55;;;;;;;9.87;100.00;99946.94;5032143;28;20048;-72
2024/03/15 04:05:09;;;;;;;23.63;12.73;;;;;;;9.88;100.00;99937.94;5039056;28;20115;-72
2024/03/15 04:07:34;;;;;;;22.58;12.55;;;;;;;9.94;100.00;99932.72;5038645;28;20119;-72
2024/03/15 04:10:00;;;;;;;20.13;11.75;;;;;;;9.92;100.00;99923.25;5035856;28;20037;-72
2024/03/15 04:12:27;;;;;;;19.83;12.10;;;;;;;10.02;100.00;99937.19;5034956;28;20013;-72
2024/03/15 04:14:56;;;;;;;22.23;13.48;;;;;;;9.89;100.00;99911.09;5039427;28;20076;-72
2024/03/15 04:17:23;;;;;;;18.15;11.65;;;;;;;9.99;100.00;99934.84;5031810;28;20032;-73
2024/03/15 04:19:53;;;;;;;25.48;12.32;;;;;;;10.06;100.00;99932.31;5031725;28;20044;-73
2024/03/15 04:22:19;;;;;;;21.75;11.52;;;;;;;10.04;100.00;99924.47;5031846;28;20575;-72
2024/03/15 04:24:45;;;;;;;19.25;11.27;;;;;;;10.05;100.00;99925.31;5035025;28;20029;-74
2024/03/15 04:27:10;;;;;;;19.73;11.73;;;;;;;9.89;100.00;99918.28;5037425;28;20458;-75
2024/03/15 04:29:36;;;;;;;27.17;12.27;;;;;;;9.88;100.00;99928.13;5034040;28;20931;-75
2024/03/15 04:32:02;;;;;;;18.70;12.43;;;;;;;9.84;100.00;99916.16;5036880;28;20108;-75
2024/03/15 04:34:28;;;;;;;20.10;12.35;;;;;;;9.97;100.00;99922.72;5033370;28;20130;-75
2024/03/15 04:36:54;;;;;;;16.98;11.07;;;;;;;9.96;100.00;99924.56;5038339;28;20068;-76
2024/03/15 04:39:19;;;;;;;18.83;12.60;;;;;;;9.87;100.00;99931.78;5030839;28;20026;-72
2024/03/15 04:41:45;;;;;;;22.52;12.43;;;;;;;9.89;100.00;99947.59;5028134;28;20495;-72
2024/03/15 04:44:10;;;;;;;21.92;12.60;;;;;;;9.88;100.00;99903.28;5037378;28;20120;-72
2024/03/15 04:46:38;;;;;;;22.83;11.90;;;;;;;9.96;100.00;99934.41;5037462;28;20031;-72
2024/03/15 04:49:03;;;;;;;23.83;14.10;;;;;;;9.80;100.00;99908.69;5031088;28;20379;-72
2024/03/15 04:51:30;;;;;;;17.83;11.93;;;;;;;9.87;100.00;99934.44;5027211;28;20851;-72
2024/03/15 04:53:55;;;;;;;20.77;12.32;;;;;;;9.89;100.00;99915.59;5031718;28;20561;-73
2024/03/15 04:56:20;;;;;;;26.10;12.55;;;;;;;9.94;100.00;99918.56;5030334;28;20069;-75
2024/03/15 04:58:46;;;;;;;19.53;12.63;;;;;;;9.84;100.00;99896.66;5029836;28;20159;-75
2024/03/15 05:01:11;;;;;;;22.67;12.45;;;;;;;9.83;100.00;99905.66;5031075;28;20036;-73
2024/03/15 05:03:37;;;;;;;21.75;11.55;;;;;;;9.96;100.00;99913.88;5052596;28;20073;-73
2024/03/15 05:06:04;;;;;;;22.13;12.45;;;;;;;9.87;100.00;99901.63;5037152;28;20036;-73
2024/03/15 05:08:29;;;;;;;;;;;;;;;9.92;100.00;99901.91;5029732;28;20030;-73
2024/03/15 05:10:55;;;;;;;21.13;12.35;;;;;;;9.70;100.00;99885.75;5038613;28;19920;-73
2024/03/15 05:13:20;;;;;;;20.80;13.55;;;;;;;9.75;100.00;99911.06;5035555;28;20036;-73
2024/03/15 05:15:46;;;;;;;18.35;11.80;;;;;;;9.79;100.00;99915.03;5050761;28;20504;-72
2024/03/15 05:18:11;;;;;;;23.53;13.57;;;;;;;9.80;100.00;99914.00;5028609;28;20022;-72
2024/03/15 05:20:39;;;;;;;21.65;12.98;;;;;;;9.80;100.00;99919.34;5029803;28;20112;-73
2024/03/15 05:23:06;;;;;;;18.67;12.27;;;;;;;9.80;100.00;99920.16;5035673;28;20387;-73
2024/03/15 05:25:32;;;;;;;20.92;12.63;;;;;;;9.67;100.00;99893.28;5046205;28;20036;-72
2024/03/15 05:27:58;;;;;;;22.95;13.45;;;;;;;9.63;100.00;99903.47;5035409;28;20037;-72
2024/03/15 05:30:24;;;;;;;24.05;14.18;;;;;;;9.68;100.00;99901.09;5034577;28;20029;-73
2024/03/15 05:32:49;;;;;;;21.17;12.67;;;;;;;9.63;100.00;99908.78;5025909;28;20040;-73
2024/03/15 05:35:18;;;;;;;25.77;13.97;;;;;;;9.61;100.00;99921.47;5028611;28;20033;-73
2024/03/15 05:37:45;;;;;;;23.05;13.85;;;;;;;9.61;100.00;99921.47;5026423;28;20098;-72
2024/03/15 05:40:10;;;;;;;23.20;13.27;;;;;;;9.63;100.00;99919.44;5026987;28;20515;-73
2024/03/15 05:42:36;;;;;;;21.60;13.05;;;;;;;9.66;100.00;99944.91;5038440;28;20041;-73
2024/03/15 05:45:04;;;;;;;23.40;14.03;;;;;;;9.80;100.00;99930.81;5058006;28;20045;-73
2024/03/15 05:47:29;;;;;;;24.73;14.80;;;;;;;9.83;100.00;99929.63;5027494;28;20038;-73
2024/03/15 05:49:56;;;;;;;23.43;14.03;;;;;;;9.77;100.00;99906.38;5034884;28;20024;-73
2024/03/15 05:52:21;;;;;;;23.17;14.52;;;;;;;9.80;100.00;99924.66;5038073;28;20280;-73
2024/03/15 05:54:47;;;;;;;22.75;14.35;;;;;;;9.83;100.00;99916.31;5016391;28;20049;-73
2024/03/15 05:57:12;;;;;;;22.88;14.15;;;;;;;9.90;100.00;99928.78;5023292;28;20017;-73
2024/03/15 05:59:38;;;;;;;22.15;13.95;;;;;;;9.98;100.00;99917.22;5044729;28;20041;-73
2024/03/15 06:02:03;;;;;;;24.40;15.30;;;;;;;9.96;100.00;99923.72;5027007;28;20037;-73
2024/03/15 06:04:31;;;;;;;22.60;14.55;;;;;;;10.02;100.00;99926.50;5036157;28;20021;-73
2024/03/15 06:06:57;;;;;;;21.25;13.43;;;;;;;9.96;100.00;99913.88;5040305;28;20499;-73
2024/03/15 06:09:22;;;;;;;21.80;12.53;;;;;;;9.95;100.00;99906.91;5029268;28;20009;-73
2024/03/15 06:11:49;;;;;;;24.08;13.93;;;;;;;10.08;100.00;99909.78;5029652;28;20895;-73
2024/03/15 06:14:14;;;;;;;23.73;14.35;;;;;;;10.15;100.00;99897.38;5039773;28;20025;-73
2024/03/15 06:16:39;;;;;;;23.93;13.53;;;;;;;10.35;100.00;99902.25;5033594;28;20524;-73
2024/03/15 06:19:06;;;;;;;19.77;13.70;;;;;;;10.34;100.00;99849.88;5025824;28;20032;-73
2024/03/15 06:21:33;;;;;;;19.85;13.05;;;;;;;10.40;100.00;99846.50;5031394;28;20080;-73
2024/03/15 06:24:00;;;;;;;24.50;13.38;;;;;;;10.20;100.00;99830.16;5031029;28;20457;-73
2024/03/15 06:26:26;;;;;;;20.02;14.05;;;;;;;10.32;100.00;99849.22;5033481;28;20090;-73
2024/03/15 06:28:54;;;;;;;22.80;14.20;;;;;;;10.23;100.00;99837.81;5039145;28;20032;-73
2024/03/15 06:31:20;;;;;;;25.42;15.18;;;;;;;10.36;100.00;99855.88;5015993;28;20037;-73
2024/03/15 06:33:48;;;;;;;24.50;16.30;;;;;;;10.22;100.00;99836.13;5032480;28;20037;-73
2024/03/15 06:36:18;;;;;;;23.92;15.00;;;;;;;10.29;100.00;99878.97;5020566;28;20053;-73
2024/03/15 06:47:04;;;;;;;23.50;13.82;;;;;;;10.39;100.00;99900.03;5032815;28;20060;-73
2024/03/15 06:49:43;;;;;;;23.42;13.48;;;;;;;10.60;100.00;99883.31;5028631;28;20040;-73
2024/03/15 06:54:55;;;;;;;19.23;12.77;;;;;;;10.48;100.00;99877.59;5035208;28;20076;-73
2024/03/15 06:57:21;;;;;;;;;;;;;;;10.67;100.00;99894.91;5037548;28;20025;-74
2024/03/15 06:59:46;;;;;;;22.40;13.88;;;;;;;10.67;100.00;99870.88;5036768;28;19923;-73
2024/03/15 07:02:11;;;;;;;24.17;14.23;;;;;;;10.64;100.00;99858.72;5026647;28;20111;-73
2024/03/15 07:04:37;;;;;;;22.03;14.33;;;;;;;10.69;100.00;99866.19;5016038;28;20688;-73
2024/03/15 07:07:02;;;;;;;21.33;13.47;;;;;;;10.79;100.00;99850.69;5034601;28;20238;-74
2024/03/15 07:09:27;;;;;;;21.60;13.40;;;;;;;10.75;100.00;99839.59;5024156;28;20026;-73
2024/03/15 07:11:53;;;;;;;23.90;13.50;;;;;;;10.78;100.00;99854.41;5038924;28;20476;-73
2024/03/15 07:14:18;;;;;;;20.60;12.97;;;;;;;10.74;100.00;99842.44;5036237;28;20291;-73
2024/03/15 07:16:43;;;;;;;21.60;13.80;;;;;;;10.88;100.00;99854.94;5035745;28;20094;-73
2024/03/15 07:19:09;;;;;;;23.60;13.80;;;;;;;10.92;100.00;99856.22;5037646;28;20022;-73
2024/03/15 07:21:37;;;;;;;21.00;13.73;;;;;;;10.87;100.00;99831.94;5034114;28;20491;-73
2024/03/15 07:24:06;;;;;;;22.70;14.45;;;;;;;10.93;100.00;99833.88;5033425;28;20025;-73
2024/03/15 07:26:31;;;;;;;20.27;13.10;;;;;;;10.97;100.00;99831.63;5028014;28;20083;-74
2024/03/15 07:28:57;;;;;;;20.10;13.38;;;;;;;10.90;100.00;99815.53;5027574;28;20029;-74
2024/03/15 07:31:23;;;;;;;23.30;14.88;;;;;;;11.06;100.00;99835.03;5041575;28;20057;-73
2024/03/15 07:33:49;;;;;;;25.33;14.07;;;;;;;10.99;100.00;99822.41;5033691;28;20123;-74
2024/03/15 07:36:14;;;;;;;22.83;14.40;;;;;;;11.27;100.00;99837.72;5040730;28;20120;-73
2024/03/15 07:38:43;;;;;;;22.37;13.93;;;;;;;11.25;100.00;99809.53;5034911;28;20039;-74
2024/03/15 07:41:10;;;;;;;21.85;14.00;;;;;;;11.18;100.00;99796.13;5038094;28;20292;-73
2024/03/15 07:43:36;;;;;;;27.85;14.07;;;;;;;11.31;100.00;99814.97;5033729;28;20664;-74
2024/03/15 07:46:02;;;;;;;18.58;13.15;;;;;;;11.27;100.00;99778.94;5036605;28;20120;-73
2024/03/15 07:48:27;;;;;;;24.73;13.45;;;;;;;11.29;100.00;99755.53;5028186;28;20029;-74
2024/03/15 07:50:53;;;;;;;23.48;13.50;;;;;;;11.34;100.00;99761.13;5048724;28;20099;-73
2024/03/15 07:53:19;;;;;;;21.73;13.43;;;;;;;11.55;100.00;99773.66;5049140;28;20491;-73
2024/03/15 07:55:44;;;;;;;;;;;;;;;11.59;100.00;99728.66;5033421;28;20024;-73
2024/03/15 07:58:10;;;;;;;19.90;12.80;;;;;;;11.89;100.00;99749.88;5039032;28;19970;-73
2024/03/15 08:00:36;;;;;;;16.67;12.20;;;;;;;11.82;100.00;99690.94;5036791;28;20065;-73
2024/03/15 08:03:02;;;;;;;20.45;13.10;;;;;;;11.93;100.00;99686.94;5046686;28;20029;-73
2024/03/15 08:05:29;;;;;;;24.00;13.00;;;;;;;12.08;100.00;99674.28;5040602;28;20805;-73
2024/03/15 08:07:55;;;;;;;24.33;13.43;;;;;;;11.95;100.00;99620.72;5031844;28;20115;-73
2024/03/15 08:10:22;;;;;;;20.17;13.05;;;;;;;12.23;100.00;99660.75;5041125;28;20113;-73
2024/03/15 08:12:48;;;;;;;19.90;13.05;;;;;;;12.34;100.00;99640.59;5029567;28;20037;-73
2024/03/15 08:15:14;;;;;;;22.35;13.50;;;;;;;11.95;100.00;99532.44;5042371;28;20082;-73
2024/03/15 08:17:40;;;;;;;18.25;12.45;;;;;;;11.97;100.00;99599.94;5030900;28;20029;-74
2024/03/15 08:20:10;;;;;;;20.73;12.45;;;;;;;11.92;100.00;99674.59;5059356;28;20506;-73
2024/03/15 08:22:37;;;;;;;24.10;13.48;;;;;;;12.17;100.00;99650.84;5033278;28;20033;-73
2024/03/15 08:25:04;;;;;;;21.13;12.52;;;;;;;12.01;100.00;99649.31;5038933;28;20091;-73
2024/03/15 08:27:30;;;;;;;23.73;14.25;;;;;;;12.10;100.00;99650.81;5037949;28;20025;-73
2024/03/15 08:29:56;;;;;;;20.30;12.18;;;;;;;12.06;100.00;99668.31;5041064;28;20025;-74
2024/03/15 08:32:23;;;;;;;21.52;13.10;;;;;;;12.03;100.00;99610.66;5031003;28;20038;-74
2024/03/15 08:34:49;;;;;;;23.15;12.95;;;;;;;12.25;100.00;99693.50;5031941;28;20408;-73
2024/03/15 08:37:14;;;;;;;19.40;12.75;;;;;;;12.52;100.00;99673.00;5039225;28;20025;-73
2024/03/15 08:39:40;;;;;;;17.67;12.52;;;;;;;12.31;100.00;99588.31;5029667;28;20109;-73
2024/03/15 08:42:05;;;;;;;27.20;14.30;;;;;;;12.59;100.00;99663.13;5053887;28;20033;-74
2024/03/15 08:44:32;;;;;;;19.00;13.10;;;;;;;12.81;100.00;99620.97;5031901;28;20116;-73
2024/03/15 08:46:57;;;;;;;17.65;12.18;;;;;;;12.77;100.00;99581.41;5055402;28;20038;-74
2024/03/15 08:49:26;;;;;;;19.00;13.13;;;;;;;12.59;100.00;99552.53;5040171;28;20059;-73
2024/03/15 08:51:54;;;;;;;19.35;13.45;;;;;;;12.40;100.00;99586.28;5023663;28;20148;-73
2024/03/15 08:54:20;;;;;;;18.08;12.60;;;;;;;12.60;100.00;99619.28;5043807;28;20029;-74
2024/03/15 08:56:45;;;;;;;19.55;13.45;;;;;;;12.54;100.00;99593.31;5030228;28;20036;-73
2024/03/15 08:59:11;;;;;;;22.43;13.60;;;;;;;12.64;100.00;99596.44;5037350;28;20029;-74
2024/03/15 09:01:37;;;;;;;19.40;12.00;;;;;;;12.89;100.00;99601.16;5028562;28;20124;-74
2024/03/15 09:04:07;;;;;;;23.27;12.93;;;;;;;12.95;100.00;99562.84;5026602;28;20250;-73
2024/03/15 09:06:36;;;;;;;21.90;13.20;;;;;;;13.13;100.00;99577.47;5035320;28;20088;-73
2024/03/15 09:09:13;;;;;;;16.95;11.57;;;;;;;13.19;100.00;99557.88;5039289;28;20095;-74
2024/03/15 09:11:38;;;;;;;21.90;12.18;;;;;;;13.77;100.00;99474.81;5034100;28;20041;-73
2024/03/15 09:14:06;;;;;;;20.98;11.70;;;;;;;14.57;100.00;99374.94;5037251;28;20023;-74
2024/03/15 09:16:35;;;;;;;20.45;12.82;;;;;;;15.26;100.00;99205.41;5030895;28;20037;-74
2024/03/15 09:19:02;;;;;;;17.70;12.93;;;;;;;15.63;100.00;99048.13;5039508;28;20021;-74
2024/03/15 09:21:28;;;;;;;14.52;11.15;;;;;;;16.02;100.00;98981.13;5023460;28;20111;-74
2024/03/15 09:23:53;;;;;;;19.60;11.93;;;;;;;16.23;100.00;98814.56;5025632;28;20151;-74
2024/03/15 09:26:20;;;;;;;16.98;11.18;;;;;;;16.38;100.00;98884.81;5027331;28;20033;-74
2024/03/15 09:28:47;;;;;;;18.77;11.57;;;;;;;16.33;100.00;98758.16;5039127;28;20107;-73
2024/03/15 09:31:14;;;;;;;18.25;10.32;;;;;;;14.86;100.00;98647.97;5037299;28;20029;-74
2024/03/15 09:33:43;;;;;;;21.30;10.80;;;;;;;15.29;100.00;99014.88;5026693;28;20029;-74
2024/03/15 09:36:16;;;;;;;13.90;10.65;;;;;;;15.58;100.00;99066.84;5036961;28;20199;-74
2024/03/15 09:38:45;;;;;;;21.60;11.20;;;;;;;15.76;100.00;99009.44;5032371;23;20049;-75
2024/03/15 09:41:13;;;;;;;15.43;10.73;;;;;;;16.09;100.00;98985.56;5032210;28;20053;-76
2024/03/15 09:43:39;;;;;;;17.35;10.48;;;;;;;15.54;100.00;98871.22;5032443;28;20484;-76
2024/03/15 09:46:06;;;;;;;17.73;10.50;;;;;;;15.15;100.00;98954.34;5031237;28;20033;-77
2024/03/15 09:48:36;;;;;;;12.38;8.95;;;;;;;14.79;100.00;99012.63;5027004;28;20396;-78
2024/03/15 09:51:03;;;;;;;14.63;8.65;;;;;;;14.31;100.00;99151.28;5028794;28;20028;-78
2024/03/15 09:53:30;;;;;;;14.02;8.63;;;;;;;14.29;100.00;99290.28;5031798;28;20440;-77
2024/03/15 09:55:57;;;;;;;13.48;9.88;;;;;;;14.26;100.00;99336.38;5046570;28;20033;-78
2024/03/15 09:58:23;;;;;;;12.43;8.75;;;;;;;13.99;100.00;99428.88;5036080;28;20110;-76
2024/03/15 10:00:49;;;;;;;14.75;8.95;;;;;;;13.88;100.00;99498.28;5028649;28;20048;-77
2024/03/15 10:03:15;;;;;;;13.52;8.23;;;;;;;13.78;100.00;99636.59;5029405;28;20037;-76
2024/03/15 10:05:41;;;;;;;13.02;9.05;;;;;;;13.64;100.00;99775.25;5013588;28;20419;-74
2024/03/15 10:08:06;;;;;;;16.00;9.15;;;;;;;13.56;100.00;99839.81;5019255;28;20032;-76
2024/03/15 10:10:32;;;;;;;12.57;8.57;;;;;;;13.52;100.00;99909.13;5041646;28;20029;-77
2024/03/15 10:12:58;;;;;;;16.23;10.03;;;;;;;13.56;100.00;99939.06;5034200;28;20041;-76
2024/03/15 10:15:23;;;;;;;13.40;8.40;;;;;;;13.54;100.00;99959.88;5030936;28;20561;-75
2024/03/15 10:17:53;;;;;;;14.73;8.98;;;;;;;13.35;100.00;99923.91;5028947;28;20046;-76
2024/03/15 10:20:22;;;;;;;14.80;9.38;;;;;;;13.29;100.00;99955.00;5030471;28;20025;-77
2024/03/15 10:22:50;;;;;;;15.50;9.05;;;;;;;13.47;100.00;99983.97;5045734;28;20179;-77
2024/03/15 10:25:18;;;;;;;16.45;10.10;;;;;;;13.47;100.00;99994.69;5043687;28;20119;-77
2024/03/15 10:27:54;;;;;;;14.77;10.00;;;;;;;13.32;100.00;99985.97;5033591;28;20596;-77
2024/03/15 10:30:24;;;;;;;12.07;8.70;;;;;;;13.08;100.00;99999.59;5045979;28;20029;-77
2024/03/15 10:32:55;;;;;;;15.35;9.50;;;;;;;13.17;100.00;100004.81;5046122;28;20060;-77
2024/03/15 10:35:25;;;;;;;16.95;9.95;;;;;;;13.13;100.00;99990.16;5042894;28;20586;-76
2024/03/15 10:37:52;;;;;;;15.35;10.27;;;;;;;13.09;100.00;99971.81;5035389;28;21454;-77
2024/03/15 10:40:22;;;;;;;19.13;9.45;;;;;;;13.28;100.00;100039.16;5041371;28;20053;-76
2024/03/15 10:42:52;;;;;;;16.70;12.15;;;;;;;13.27;100.00;100097.31;5013698;28;20750;-76
2024/03/15 10:45:20;;;;;;;12.90;9.95;;;;;;;13.48;100.00;100125.88;5031907;28;20542;-76
2024/03/15 10:47:46;;;;;;;20.00;10.73;;;;;;;13.11;100.00;100113.66;5039166;28;20068;-74
2024/03/15 10:50:12;;;;;;;;;;;;;;;12.95;100.00;100151.44;5040040;28;20033;-77
2024/03/15 10:52:42;;;;;;;19.27;10.40;;;;;;;12.97;100.00;100187.75;5032441;28;20569;-75
2024/03/15 10:55:18;;;;;;;19.75;12.70;;;;;;;12.92;100.00;100202.72;5022383;28;20040;-75
2024/03/15 10:57:44;;;;;;;23.15;12.60;;;;;;;12.93;100.00;100207.06;5022508;28;20042;-77
2024/03/15 11:00:14;;;;;;;24.20;12.95;;;;;;;13.46;100.00;100215.59;5031185;28;20029;-78
2024/03/15 11:02:43;;;;;;;19.67;12.02;;;;;;;13.89;100.00;100210.94;5031673;28;20038;-78
2024/03/15 11:05:18;;;;;;;19.95;12.38;;;;;;;13.87;100.00;100112.91;5036961;28;20613;-76
2024/03/15 11:07:44;;;;;;;19.85;13.23;;;;;;;13.41;100.00;100114.28;5013185;28;20048;-77
2024/03/15 11:10:13;;;;;;;24.90;13.20;;;;;;;13.00;100.00;100123.03;5029407;28;20029;-77
2024/03/15 11:12:39;;;;;;;26.40;13.05;;;;;;;13.24;100.00;100139.72;5022402;28;20496;-77
2024/03/15 11:15:12;;;;;;;21.92;13.05;;;;;;;13.12;100.00;100126.03;5028080;28;20022;-78
2024/03/15 11:17:38;;;;;;;22.50;13.77;;;;;;;13.24;100.00;100118.28;5018172;28;20160;-75
2024/03/15 11:20:09;;;;;;;23.48;13.15;;;;;;;13.07;100.00;100113.19;5021786;28;20147;-76